createdAt,value
2019-02-14T00:01:51.023Z,80.12
2019-02-14T00:04:22.442Z,80.08
2019-02-14T00:06:51.094Z,80.11
2019-02-14T00:09:21.278Z,80.22
2019-02-14T00:11:49.569Z,79.68
2019-02-14T00:14:17.847Z,79.79
2019-02-14T00:16:46.107Z,80.14
2019-02-14T00:19:14.406Z,80.04
2019-02-14T00:21:42.722Z,79.72
2019-02-14T00:24:11.011Z,79.80
2019-02-14T00:26:39.293Z,79.67
2019-02-14T00:29:07.564Z,79.73
2019-02-14T00:31:35.862Z,79.62
2019-02-14T00:34:04.150Z,79.58
2019-02-14T00:36:32.411Z,79.48
2019-02-14T00:39:00.695Z,79.57
2019-02-14T00:41:28.963Z,79.58
2019-02-14T00:43:57.219Z,79.53
2019-02-14T00:46:25.511Z,79.38
2019-02-14T00:48:53.807Z,79.24
2019-02-14T00:51:22.091Z,79.30
2019-02-14T00:53:50.347Z,79.22
2019-02-14T00:56:18.655Z,79.05
2019-02-14T00:58:46.913Z,78.99
2019-02-14T01:01:15.200Z,79.00
2019-02-14T01:03:43.471Z,79.22
2019-02-14T01:06:11.749Z,79.16
2019-02-14T01:08:39.993Z,78.93
2019-02-14T01:11:08.323Z,79.01
2019-02-14T01:13:36.593Z,79.11
2019-02-14T01:16:05.232Z,78.87
2019-02-14T01:18:33.480Z,78.92
2019-02-14T01:21:01.760Z,78.72
2019-02-14T01:23:30.060Z,78.80
2019-02-14T01:25:58.338Z,78.59
2019-02-14T01:28:26.603Z,78.65
2019-02-14T01:30:54.896Z,78.64
2019-02-14T01:33:23.153Z,78.32
2019-02-14T01:35:51.438Z,78.46
2019-02-14T01:38:19.720Z,78.35
2019-02-14T01:40:47.988Z,78.36
2019-02-14T01:43:16.262Z,78.20
2019-02-14T01:45:44.544Z,78.04
2019-02-14T01:48:13.052Z,78.04
2019-02-14T01:50:41.350Z,78.04
2019-02-14T01:53:09.598Z,78.09
2019-02-14T01:55:37.882Z,78.16
2019-02-14T01:58:06.225Z,77.95
2019-02-14T02:00:34.580Z,78.25
2019-02-14T02:03:02.842Z,78.14
2019-02-14T02:05:31.128Z,77.97
2019-02-14T02:07:59.399Z,77.94
2019-02-14T02:10:27.700Z,78.14
2019-02-14T02:12:56.028Z,78.04
2019-02-14T02:15:24.298Z,78.08
2019-02-14T02:17:52.664Z,78.29
2019-02-14T02:20:20.935Z,78.25
2019-02-14T02:22:49.244Z,78.25
2019-02-14T02:25:17.518Z,78.25
2019-02-14T02:27:45.800Z,78.40
2019-02-14T02:30:15.242Z,78.44
2019-02-14T02:32:43.510Z,78.60
2019-02-14T02:35:11.784Z,78.75
2019-02-14T02:37:40.064Z,78.82
2019-02-14T02:40:09.185Z,79.20
2019-02-14T02:42:37.464Z,79.04
2019-02-14T02:45:29.721Z,79.16
2019-02-14T02:47:58.004Z,79.12
2019-02-14T02:50:26.257Z,78.77
2019-02-14T02:52:54.556Z,78.92
2019-02-14T02:55:22.874Z,78.95
2019-02-14T02:57:51.167Z,78.88
2019-02-14T03:00:19.449Z,79.12
2019-02-14T03:02:47.741Z,78.81
2019-02-14T03:05:16.276Z,78.82
2019-02-14T03:07:44.562Z,78.79
2019-02-14T03:10:13.773Z,78.93
2019-02-14T03:12:42.059Z,78.99
2019-02-14T03:15:14.856Z,78.99
2019-02-14T03:17:43.236Z,78.76
2019-02-14T03:20:12.727Z,78.63
2019-02-14T03:22:41.027Z,78.51
2019-02-14T03:25:19.988Z,78.59
2019-02-14T03:27:48.278Z,78.86
2019-02-14T03:30:16.940Z,78.94
2019-02-14T03:32:45.236Z,78.73
2019-02-14T03:35:13.509Z,78.87
2019-02-14T03:41:13.691Z,78.89
2019-02-14T03:43:41.949Z,78.75
2019-02-14T03:46:11.885Z,78.90
2019-02-14T03:48:40.171Z,78.96
2019-02-14T03:51:08.453Z,78.92
2019-02-14T03:53:36.733Z,78.94
2019-02-14T03:56:04.992Z,79.05
2019-02-14T03:58:33.283Z,78.81
2019-02-14T04:01:01.547Z,78.58
2019-02-14T04:03:29.836Z,78.40
2019-02-14T04:05:58.106Z,78.26
2019-02-14T04:08:26.397Z,78.53
2019-02-14T04:10:54.709Z,78.56
2019-02-14T04:13:23.299Z,78.76
2019-02-14T04:15:51.553Z,78.64
2019-02-14T04:18:19.851Z,78.52
2019-02-14T04:20:48.114Z,78.32
2019-02-14T04:23:16.436Z,78.40
2019-02-14T04:25:44.683Z,78.34
2019-02-14T04:28:12.947Z,78.17
2019-02-14T04:30:41.223Z,78.43
2019-02-14T04:33:09.497Z,78.14
2019-02-14T04:35:37.762Z,78.23
2019-02-14T04:38:06.047Z,78.40
2019-02-14T04:40:34.314Z,78.37
2019-02-14T04:43:02.623Z,78.26
2019-02-14T04:45:30.882Z,77.59
2019-02-14T04:47:59.168Z,77.43
2019-02-14T04:50:27.484Z,77.65
2019-02-14T04:52:55.761Z,77.53
2019-02-14T04:55:24.014Z,77.41
2019-02-14T04:57:52.304Z,77.43
2019-02-14T05:00:20.607Z,77.20
2019-02-14T05:02:48.903Z,77.59
2019-02-14T05:05:17.588Z,77.75
2019-02-14T05:07:45.890Z,77.59
2019-02-14T05:10:14.138Z,77.40
2019-02-14T05:12:42.551Z,77.50
2019-02-14T05:15:11.365Z,77.85
2019-02-14T05:17:39.664Z,77.75
2019-02-14T05:20:10.840Z,77.30
2019-02-14T05:22:39.108Z,77.39
2019-02-14T05:25:10.378Z,77.74
2019-02-14T05:27:38.878Z,77.56
2019-02-14T05:30:13.129Z,77.38
2019-02-14T05:32:41.414Z,77.42
2019-02-14T05:35:09.702Z,77.68
2019-02-14T05:37:39.735Z,77.58
2019-02-14T05:40:10.896Z,77.63
2019-02-14T05:42:39.553Z,77.20
2019-02-14T05:45:12.919Z,77.13
2019-02-14T05:47:41.210Z,77.20
2019-02-14T05:50:12.072Z,77.07
2019-02-14T05:52:40.336Z,77.25
2019-02-14T05:55:10.596Z,77.00
2019-02-14T05:57:38.855Z,77.00
2019-02-14T06:00:10.546Z,77.29
2019-02-14T06:02:38.800Z,77.36
2019-02-14T06:05:07.105Z,77.34
2019-02-14T06:07:35.407Z,77.28
2019-02-14T06:10:04.808Z,77.41
2019-02-14T06:12:33.167Z,77.59
2019-02-14T06:15:01.466Z,77.29
2019-02-14T06:17:29.748Z,78.17
2019-02-14T06:19:58.051Z,77.67
2019-02-14T06:22:26.318Z,77.42
2019-02-14T06:24:54.601Z,76.26
2019-02-14T06:27:22.897Z,76.06
2019-02-14T06:29:51.226Z,76.77
2019-02-14T06:32:19.497Z,77.08
2019-02-14T06:34:47.807Z,76.98
2019-02-14T06:37:16.055Z,77.09
2019-02-14T06:39:44.331Z,77.10
2019-02-14T06:42:12.763Z,76.99
2019-02-14T06:44:41.062Z,76.89
2019-02-14T06:47:09.536Z,77.02
2019-02-14T06:49:37.841Z,76.94
2019-02-14T06:52:06.169Z,76.97
2019-02-14T06:54:35.863Z,76.59
2019-02-14T06:57:04.134Z,76.36
2019-02-14T06:59:32.431Z,76.06
2019-02-14T07:02:00.707Z,75.45
2019-02-14T07:04:28.995Z,75.79
2019-02-14T07:06:57.259Z,76.24
2019-02-14T07:09:25.537Z,76.17
2019-02-14T07:11:53.825Z,76.33
2019-02-14T07:14:22.135Z,76.30
2019-02-14T07:16:50.406Z,76.38
2019-02-14T07:19:18.701Z,76.30
2019-02-14T07:21:49.702Z,76.60
2019-02-14T07:24:18.057Z,76.58
2019-02-14T07:26:46.327Z,76.30
2019-02-14T07:29:14.715Z,76.37
2019-02-14T07:31:42.989Z,76.76
2019-02-14T07:34:14.449Z,76.54
2019-02-14T07:36:42.740Z,76.69
2019-02-14T07:39:11.184Z,76.53
2019-02-14T07:41:39.459Z,76.44
2019-02-14T07:44:10.470Z,76.29
2019-02-14T07:46:40.381Z,76.24
2019-02-14T07:49:08.655Z,76.42
2019-02-14T07:51:37.003Z,76.37
2019-02-14T07:54:05.251Z,76.57
2019-02-14T07:56:33.543Z,76.44
2019-02-14T07:59:01.812Z,76.79
2019-02-14T08:01:30.091Z,76.54
2019-02-14T08:03:58.379Z,76.42
2019-02-14T08:06:29.641Z,76.21
2019-02-14T08:08:57.910Z,76.49
2019-02-14T08:11:26.195Z,76.56
2019-02-14T08:13:55.725Z,76.42
2019-02-14T08:16:23.941Z,75.92
2019-02-14T08:18:52.264Z,75.91
2019-02-14T08:21:20.532Z,76.20
2019-02-14T08:23:48.803Z,76.20
2019-02-14T08:26:17.055Z,75.84
2019-02-14T08:28:45.381Z,74.89
2019-02-14T08:31:13.880Z,74.73
2019-02-14T08:33:42.164Z,73.50
2019-02-14T08:36:10.410Z,73.02
2019-02-14T08:38:38.687Z,74.59
2019-02-14T08:41:08.989Z,74.40
2019-02-14T08:43:37.288Z,74.81
2019-02-14T08:46:07.646Z,75.25
2019-02-14T08:48:35.898Z,74.83
2019-02-14T08:51:04.163Z,74.89
2019-02-14T08:53:32.460Z,74.94
2019-02-14T08:56:00.727Z,73.97
2019-02-14T08:58:29.003Z,74.04
2019-02-14T09:00:57.264Z,74.40
2019-02-14T09:03:25.585Z,74.40
2019-02-14T09:05:53.842Z,74.56
2019-02-14T09:08:22.206Z,74.00
2019-02-14T09:10:50.417Z,73.69
2019-02-14T09:13:18.761Z,73.20
2019-02-14T09:15:47.017Z,73.38
2019-02-14T09:18:18.417Z,73.31
2019-02-14T09:20:46.694Z,73.82
2019-02-14T09:23:14.921Z,73.60
2019-02-14T09:25:43.473Z,73.01
2019-02-14T09:28:12.072Z,73.17
2019-02-14T09:30:40.714Z,72.20
2019-02-14T09:33:10.717Z,72.85
2019-02-14T09:35:39.275Z,72.62
2019-02-14T09:38:07.951Z,72.22
2019-02-14T09:40:37.943Z,73.24
2019-02-14T09:43:06.527Z,72.86
2019-02-14T09:45:35.092Z,72.87
2019-02-14T09:48:03.546Z,72.19
2019-02-14T09:50:31.822Z,72.28
2019-02-14T09:53:02.081Z,72.22
2019-02-14T09:55:30.364Z,71.78
2019-02-14T09:57:58.628Z,71.32
2019-02-14T10:00:26.906Z,72.49
2019-02-14T10:02:55.170Z,70.96
2019-02-14T10:05:23.447Z,67.97
2019-02-14T10:07:51.696Z,68.28
2019-02-14T10:10:21.618Z,68.16
2019-02-14T10:12:49.883Z,68.18
2019-02-14T10:15:18.167Z,69.31
2019-02-14T10:17:46.415Z,68.33
2019-02-14T10:20:17.256Z,67.97
2019-02-14T10:22:45.566Z,68.06
2019-02-14T10:25:14.167Z,67.38
2019-02-14T10:27:42.412Z,68.35
2019-02-14T10:30:13.437Z,68.83
2019-02-14T10:32:41.697Z,68.98
2019-02-14T10:35:09.968Z,69.49
2019-02-14T10:37:38.214Z,69.26
2019-02-14T10:40:12.066Z,68.47
2019-02-14T10:42:40.361Z,67.83
2019-02-14T10:45:16.584Z,68.24
2019-02-14T10:47:44.855Z,69.22
2019-02-14T10:50:13.136Z,67.62
2019-02-14T10:52:41.407Z,69.41
2019-02-14T10:55:11.718Z,68.30
2019-02-14T10:57:39.981Z,68.43
2019-02-14T11:00:17.308Z,68.48
2019-02-14T11:02:45.941Z,68.42
2019-02-14T11:05:14.959Z,68.24
2019-02-14T11:07:45.934Z,67.53
2019-02-14T11:10:18.069Z,67.91
2019-02-14T11:12:46.353Z,67.41
2019-02-14T11:15:21.852Z,68.80
2019-02-14T11:17:50.146Z,67.67
2019-02-14T11:20:18.422Z,67.92
2019-02-14T11:22:48.800Z,67.82
2019-02-14T11:25:19.795Z,67.93
2019-02-14T11:27:48.053Z,67.27
2019-02-14T11:30:16.411Z,67.23
2019-02-14T11:32:44.741Z,67.70
2019-02-14T11:35:13.014Z,67.50
2019-02-14T11:37:41.268Z,67.70
2019-02-14T11:40:11.600Z,66.90
2019-02-14T11:42:39.867Z,67.92
2019-02-14T11:45:22.353Z,67.12
2019-02-14T11:47:50.610Z,66.14
2019-02-14T11:50:19.029Z,66.05
2019-02-14T11:52:47.278Z,66.90
2019-02-14T11:55:15.552Z,66.19
2019-02-14T11:57:44.186Z,65.45
2019-02-14T12:00:18.830Z,66.25
2019-02-14T12:02:55.129Z,65.28
2019-02-14T12:05:17.651Z,64.86
2019-02-14T12:07:45.913Z,64.93
2019-02-14T12:10:14.550Z,63.59
2019-02-14T12:12:42.819Z,64.67
2019-02-14T12:15:12.326Z,64.91
2019-02-14T12:17:40.581Z,63.76
2019-02-14T12:20:14.066Z,63.30
2019-02-14T12:22:46.636Z,63.25
2019-02-14T12:25:15.175Z,63.37
2019-02-14T12:27:43.429Z,62.24
2019-02-14T12:30:13.640Z,62.13
2019-02-14T12:32:44.005Z,61.49
2019-02-14T12:35:12.269Z,61.65
2019-02-14T12:37:40.533Z,62.71
2019-02-14T12:40:13.642Z,62.83
2019-02-14T12:42:41.981Z,62.07
2019-02-14T12:45:20.544Z,61.98
2019-02-14T12:47:45.917Z,62.54
2019-02-14T12:50:14.200Z,61.32
2019-02-14T12:52:42.478Z,60.91
2019-02-14T12:55:10.755Z,59.67
2019-02-14T12:57:44.061Z,59.50
2019-02-14T13:00:19.492Z,60.15
2019-02-14T13:02:47.779Z,59.46
2019-02-14T13:05:16.068Z,58.75
2019-02-14T13:07:44.333Z,57.32
2019-02-14T13:10:36.337Z,55.96
2019-02-14T13:13:04.593Z,55.19
2019-02-14T13:15:32.863Z,54.17
2019-02-14T13:18:01.153Z,53.38
2019-02-14T13:20:29.424Z,52.20
2019-02-14T13:22:57.720Z,51.86
2019-02-14T13:25:26.001Z,52.69
2019-02-14T13:27:54.328Z,51.60
2019-02-14T13:30:26.956Z,50.43
2019-02-14T13:32:55.236Z,51.85
2019-02-14T13:35:23.490Z,51.11
2019-02-14T13:37:51.800Z,48.23
2019-02-14T13:40:20.051Z,49.39
2019-02-14T13:42:48.386Z,49.39
2019-02-14T13:45:22.196Z,47.27
2019-02-14T13:47:50.471Z,48.35
2019-02-14T13:50:18.735Z,48.59
2019-02-14T13:52:47.099Z,48.46
2019-02-14T13:55:15.349Z,49.30
2019-02-14T13:57:44.027Z,48.60
2019-02-14T14:00:18.237Z,46.17
2019-02-14T14:02:46.509Z,48.10
2019-02-14T14:05:14.762Z,49.73
2019-02-14T14:07:43.061Z,48.08
2019-02-14T14:10:11.331Z,48.69
2019-02-14T14:12:39.589Z,49.65
2019-02-14T14:15:09.487Z,48.74
2019-02-14T14:17:37.759Z,49.68
2019-02-14T14:20:07.473Z,50.02
2019-02-14T14:22:35.756Z,50.71
2019-02-14T14:25:05.261Z,49.48
2019-02-14T14:27:33.532Z,49.63
2019-02-14T14:30:01.806Z,49.06
2019-02-14T14:32:30.072Z,49.42
2019-02-14T14:34:58.361Z,50.03
2019-02-14T14:37:26.613Z,50.06
2019-02-14T14:39:54.884Z,49.84
2019-02-14T14:42:41.260Z,49.49
2019-02-14T14:45:11.172Z,50.47
2019-02-14T14:47:39.450Z,50.24
2019-02-14T14:50:08.283Z,50.93
2019-02-14T14:52:36.604Z,50.26
2019-02-14T14:55:05.754Z,50.04
2019-02-14T14:57:34.021Z,51.30
2019-02-14T15:00:02.285Z,51.24
2019-02-14T15:02:30.542Z,50.34
2019-02-14T15:04:58.811Z,51.39
2019-02-14T15:07:27.072Z,51.63
2019-02-14T15:09:57.614Z,51.36
2019-02-14T15:12:25.342Z,51.61
2019-02-14T15:14:53.615Z,51.65
2019-02-14T15:17:21.872Z,51.87
2019-02-14T15:19:50.149Z,52.29
2019-02-14T15:22:18.420Z,51.96
2019-02-14T15:24:46.718Z,52.56
2019-02-14T15:27:14.994Z,52.49
2019-02-14T15:29:43.430Z,52.04
2019-02-14T15:32:11.694Z,52.33
2019-02-14T15:34:39.969Z,53.18
2019-02-14T15:40:49.218Z,52.59
2019-02-14T15:43:17.478Z,53.33
2019-02-14T15:45:45.956Z,53.44
2019-02-14T15:48:50.846Z,53.51
2019-02-14T15:51:21.212Z,53.84
2019-02-14T15:53:49.494Z,54.11
2019-02-14T15:56:17.783Z,54.30
2019-02-14T15:58:46.124Z,54.42
2019-02-14T16:01:16.577Z,54.82
2019-02-14T16:03:48.074Z,54.90
2019-02-14T16:06:17.990Z,55.29
2019-02-14T16:08:47.166Z,55.31
2019-02-14T16:11:25.066Z,55.46
2019-02-14T16:13:54.961Z,55.42
2019-02-14T16:16:26.103Z,55.57
2019-02-14T16:18:54.384Z,56.20
2019-02-14T16:21:22.737Z,55.87
2019-02-14T16:23:52.938Z,56.25
2019-02-14T16:26:21.045Z,56.39
2019-02-14T16:28:49.305Z,56.57
2019-02-14T16:31:17.640Z,56.75
2019-02-14T16:33:47.967Z,56.85
2019-02-14T16:36:16.255Z,57.16
2019-02-14T16:38:44.522Z,57.24
2019-02-14T16:41:12.803Z,57.44
2019-02-14T16:43:41.059Z,57.32
2019-02-14T16:46:09.367Z,57.50
2019-02-14T16:48:37.629Z,57.37
2019-02-14T16:51:05.905Z,58.02
2019-02-14T16:53:34.152Z,58.21
2019-02-14T16:56:05.302Z,58.49
2019-02-14T16:58:33.607Z,58.49
2019-02-14T17:01:01.864Z,58.89
2019-02-14T17:03:30.152Z,58.83
2019-02-14T17:05:58.634Z,58.79
2019-02-14T17:08:26.862Z,59.02
2019-02-14T17:10:55.153Z,59.47
2019-02-14T17:13:23.448Z,59.63
2019-02-14T17:15:56.066Z,59.56
2019-02-14T17:18:24.384Z,59.93
2019-02-14T17:20:52.671Z,60.16
2019-02-14T17:23:20.930Z,59.97
2019-02-14T17:25:49.222Z,60.15
2019-02-14T17:28:17.486Z,60.24
2019-02-14T17:30:45.766Z,60.44
2019-02-14T17:33:14.040Z,60.35
2019-02-14T17:35:42.396Z,60.42
2019-02-14T17:38:10.676Z,60.67
2019-02-14T17:40:45.741Z,60.83
2019-02-14T17:43:08.946Z,60.93
2019-02-14T17:45:37.239Z,61.23
2019-02-14T17:48:05.503Z,61.60
2019-02-14T17:50:33.763Z,61.67
2019-02-14T17:53:02.047Z,61.29
2019-02-14T17:55:30.316Z,61.61
2019-02-14T17:57:58.599Z,61.41
2019-02-14T18:00:27.943Z,61.70
2019-02-14T18:02:56.231Z,61.82
2019-02-14T18:05:24.504Z,61.82
2019-02-14T18:07:52.791Z,61.91
2019-02-14T18:10:21.055Z,61.79
2019-02-14T18:12:49.306Z,61.84
2019-02-14T18:15:19.815Z,61.69
2019-02-14T18:17:48.107Z,61.62
2019-02-14T18:20:16.370Z,61.76
2019-02-14T18:22:44.664Z,61.78
2019-02-14T18:25:13.110Z,62.10
2019-02-14T18:27:41.464Z,62.12
2019-02-14T18:30:13.031Z,62.22
2019-02-14T18:32:41.330Z,62.38
2019-02-14T18:35:13.395Z,62.51
2019-02-14T18:37:41.684Z,62.49
2019-02-14T18:40:11.047Z,62.66
2019-02-14T18:42:42.138Z,62.76
2019-02-14T18:45:12.454Z,62.90
2019-02-14T18:47:40.721Z,63.19
2019-02-14T18:50:11.915Z,63.14
2019-02-14T18:52:40.193Z,63.18
2019-02-14T18:55:10.105Z,63.19
2019-02-14T18:57:38.376Z,63.43
2019-02-14T19:00:10.630Z,63.75
2019-02-14T19:02:38.973Z,63.45
2019-02-14T19:05:09.613Z,63.39
2019-02-14T19:07:37.888Z,63.42
2019-02-14T19:10:09.420Z,63.52
2019-02-14T19:12:37.697Z,63.62
2019-02-14T19:15:08.296Z,63.75
2019-02-14T19:17:36.727Z,64.23
2019-02-14T19:20:08.023Z,64.42
2019-02-14T19:22:36.311Z,64.71
2019-02-14T19:25:05.600Z,64.89
2019-02-14T19:27:33.944Z,64.85
2019-02-14T19:30:02.216Z,65.12
2019-02-14T19:32:30.506Z,65.53
2019-02-14T19:34:58.782Z,65.33
2019-02-14T19:37:27.064Z,65.30
2019-02-14T19:39:55.334Z,65.39
2019-02-14T19:42:23.674Z,65.57
2019-02-14T19:44:51.959Z,65.88
2019-02-14T19:47:20.237Z,66.27
2019-02-14T19:49:48.582Z,66.25
2019-02-14T19:52:16.855Z,66.19
2019-02-14T19:54:45.113Z,66.01
2019-02-14T19:57:13.470Z,65.92
2019-02-14T19:59:41.747Z,65.88
2019-02-14T20:02:10.098Z,66.10
2019-02-14T20:04:43.093Z,66.16
2019-02-14T20:07:11.352Z,66.17
2019-02-14T20:09:41.508Z,66.07
2019-02-14T20:12:09.664Z,66.37
2019-02-14T20:14:37.972Z,66.69
2019-02-14T20:17:07.104Z,66.81
2019-02-14T20:19:35.424Z,66.83
2019-02-14T20:22:03.721Z,67.07
2019-02-14T20:24:32.021Z,67.05
2019-02-14T20:27:00.298Z,67.02
2019-02-14T20:29:28.573Z,67.19
2019-02-14T20:31:56.848Z,67.28
2019-02-14T20:34:25.135Z,67.22
2019-02-14T20:36:53.409Z,67.21
2019-02-14T20:39:21.760Z,67.23
2019-02-14T20:41:50.033Z,67.83
2019-02-14T20:44:18.668Z,67.89
2019-02-14T20:46:46.938Z,67.57
2019-02-14T20:49:15.216Z,67.34
2019-02-14T20:51:43.500Z,67.26
2019-02-14T20:54:11.803Z,67.27
2019-02-14T20:56:40.093Z,67.39
2019-02-14T20:59:08.377Z,67.56
2019-02-14T21:01:38.325Z,67.58
2019-02-14T21:04:06.605Z,67.93
2019-02-14T21:06:34.893Z,68.07
2019-02-14T21:09:04.457Z,68.06
2019-02-14T21:11:36.346Z,67.90
2019-02-14T21:14:04.614Z,68.12
2019-02-14T21:16:32.899Z,68.16
2019-02-14T21:19:01.195Z,68.25
2019-02-14T21:21:29.452Z,68.38
2019-02-14T21:23:59.858Z,68.46
2019-02-14T21:26:27.942Z,68.43
2019-02-14T21:28:56.242Z,68.51
2019-02-14T21:31:24.530Z,68.78
2019-02-14T21:33:54.409Z,68.72
2019-02-14T21:36:24.111Z,68.66
2019-02-14T21:38:52.369Z,68.76
2019-02-14T21:41:22.310Z,68.66
2019-02-14T21:43:50.640Z,68.61
2019-02-14T21:46:19.056Z,68.51
2019-02-14T21:48:47.312Z,68.55
2019-02-14T21:51:15.595Z,68.79
2019-02-14T21:53:43.882Z,68.95
2019-02-14T21:56:15.076Z,69.09
2019-02-14T21:58:43.341Z,69.02
2019-02-14T22:01:12.195Z,68.99
2019-02-14T22:03:43.426Z,69.21
2019-02-14T22:06:11.715Z,69.21
2019-02-14T22:08:41.791Z,69.02
2019-02-14T22:11:12.818Z,68.84
2019-02-14T22:13:43.205Z,69.26
2019-02-14T22:16:11.088Z,69.43
2019-02-14T22:18:42.583Z,69.49
2019-02-14T22:21:10.943Z,69.42
2019-02-14T22:23:40.934Z,69.19
2019-02-14T22:26:10.841Z,69.21
2019-02-14T22:28:39.124Z,69.48
2019-02-14T22:31:08.143Z,69.33
2019-02-14T22:33:37.496Z,69.22
2019-02-14T22:36:06.778Z,69.37
2019-02-14T22:38:36.694Z,69.57
2019-02-14T22:41:05.358Z,69.53
2019-02-14T22:43:33.613Z,69.37
2019-02-14T22:46:03.718Z,69.31
2019-02-14T22:48:32.050Z,69.33
2019-02-14T22:51:00.519Z,69.45
2019-02-14T22:53:28.834Z,69.46
2019-02-14T22:55:57.065Z,69.81
2019-02-14T22:58:25.333Z,69.93
2019-02-14T23:00:55.900Z,69.96
2019-02-14T23:03:27.814Z,69.82
2019-02-14T23:05:56.042Z,69.87
2019-02-14T23:11:56.325Z,69.65
2019-02-14T23:14:24.583Z,69.73
2019-02-14T23:16:52.960Z,69.80
2019-02-14T23:19:21.223Z,69.91
2019-02-14T23:21:53.962Z,69.93
2019-02-14T23:24:22.232Z,69.96
2019-02-14T23:30:22.395Z,70.19
2019-02-14T23:32:50.663Z,70.03
2019-02-14T23:35:18.931Z,69.84
2019-02-14T23:37:47.240Z,70.00
2019-02-14T23:40:15.499Z,70.04
2019-02-14T23:42:43.783Z,70.06
2019-02-14T23:45:12.061Z,70.02
2019-02-14T23:47:40.337Z,70.09
2019-02-14T23:50:10.721Z,70.03
2019-02-14T23:52:38.997Z,70.21
2019-02-14T23:55:08.990Z,70.74
2019-02-14T23:57:37.300Z,71.09
